createdAt,value
2018-06-20T00:00:53.297Z,99.99
2018-06-20T00:01:53.306Z,99.99
2018-06-20T00:02:53.305Z,99.99
2018-06-20T00:03:53.305Z,99.99
2018-06-20T00:04:53.313Z,99.99
2018-06-20T00:05:53.310Z,99.99
2018-06-20T00:06:53.310Z,99.99
2018-06-20T00:07:53.316Z,99.99
2018-06-20T00:08:53.318Z,99.99
2018-06-20T00:09:53.358Z,99.99
2018-06-20T00:10:53.316Z,99.99
2018-06-20T00:11:53.438Z,99.99
2018-06-20T00:12:53.324Z,99.99
2018-06-20T00:13:53.328Z,99.99
2018-06-20T00:14:53.325Z,99.99
2018-06-20T00:15:53.328Z,99.99
2018-06-20T00:16:53.337Z,99.99
2018-06-20T00:17:53.331Z,99.99
2018-06-20T00:18:53.336Z,99.99
2018-06-20T00:19:53.334Z,99.99
2018-06-20T00:20:53.335Z,99.99
2018-06-20T00:21:53.338Z,99.99
2018-06-20T00:22:53.369Z,99.99
2018-06-20T00:23:53.340Z,99.99
2018-06-20T00:24:53.341Z,99.99
2018-06-20T00:25:53.345Z,99.99
2018-06-20T00:26:53.347Z,99.99
2018-06-20T00:27:53.351Z,99.99
2018-06-20T00:28:53.380Z,99.99
2018-06-20T00:29:53.361Z,99.99
2018-06-20T00:30:53.354Z,99.99
2018-06-20T00:31:53.358Z,99.99
2018-06-20T00:32:53.368Z,99.99
2018-06-20T00:33:53.365Z,99.99
2018-06-20T00:34:53.359Z,99.99
2018-06-20T00:35:53.360Z,99.99
2018-06-20T00:36:53.365Z,99.99
2018-06-20T00:37:53.367Z,99.99
2018-06-20T00:38:53.364Z,99.99
2018-06-20T00:39:53.369Z,99.99
2018-06-20T00:40:53.371Z,99.99
2018-06-20T00:41:53.376Z,99.99
2018-06-20T00:42:53.377Z,99.99
2018-06-20T00:43:53.375Z,99.99
2018-06-20T00:44:53.376Z,99.99
2018-06-20T00:45:53.376Z,99.99
2018-06-20T00:46:53.412Z,99.99
2018-06-20T00:47:53.380Z,99.99
2018-06-20T00:48:53.384Z,99.99
2018-06-20T00:49:53.392Z,99.99
2018-06-20T00:50:53.386Z,99.99
2018-06-20T00:51:53.388Z,99.99
2018-06-20T00:52:53.388Z,99.99
2018-06-20T00:53:53.419Z,99.99
2018-06-20T00:54:53.419Z,99.99
2018-06-20T00:55:53.410Z,99.99
2018-06-20T00:56:53.395Z,99.99
2018-06-20T00:57:53.414Z,99.99
2018-06-20T00:58:53.414Z,99.99
2018-06-20T00:59:53.398Z,99.99
2018-06-20T01:00:53.407Z,99.99
2018-06-20T01:01:53.407Z,99.99
2018-06-20T01:02:53.406Z,99.99
2018-06-20T01:03:53.407Z,99.99
2018-06-20T01:04:53.408Z,99.99
2018-06-20T01:05:53.409Z,99.99
2018-06-20T01:06:53.411Z,99.99
2018-06-20T01:07:53.419Z,99.99
2018-06-20T01:08:53.451Z,99.99
2018-06-20T01:09:53.424Z,99.99
2018-06-20T01:10:53.424Z,99.99
2018-06-20T01:11:53.565Z,99.99
2018-06-20T01:12:53.425Z,99.99
2018-06-20T01:13:53.422Z,99.99
2018-06-20T01:14:53.420Z,99.99
2018-06-20T01:15:53.425Z,99.99
2018-06-20T01:16:53.428Z,99.99
2018-06-20T01:17:53.430Z,99.99
2018-06-20T01:18:53.458Z,99.99
2018-06-20T01:19:53.451Z,99.99
2018-06-20T01:20:53.435Z,99.99
2018-06-20T01:21:53.431Z,99.99
2018-06-20T01:22:53.479Z,99.99
2018-06-20T01:23:53.439Z,99.99
2018-06-20T01:24:53.439Z,99.99
2018-06-20T01:25:53.447Z,99.99
2018-06-20T01:26:53.443Z,99.99
2018-06-20T01:27:53.464Z,99.99
2018-06-20T01:28:53.441Z,99.99
2018-06-20T01:29:53.464Z,99.99
2018-06-20T01:30:53.460Z,99.99
2018-06-20T01:31:53.450Z,99.99
2018-06-20T01:32:53.446Z,99.99
2018-06-20T01:33:53.451Z,99.99
2018-06-20T01:34:53.454Z,99.99
2018-06-20T01:35:53.468Z,99.99
2018-06-20T01:36:53.455Z,99.99
2018-06-20T01:37:53.465Z,99.99
2018-06-20T01:38:53.481Z,99.99
2018-06-20T01:39:53.489Z,99.99
2018-06-20T01:40:53.465Z,99.99
2018-06-20T01:41:53.464Z,99.99
2018-06-20T01:42:53.462Z,99.99
2018-06-20T01:43:53.494Z,99.99
2018-06-20T01:44:53.462Z,99.99
2018-06-20T01:45:53.493Z,99.99
2018-06-20T01:46:53.467Z,99.99
2018-06-20T01:47:53.467Z,99.99
2018-06-20T01:48:53.470Z,99.99
2018-06-20T01:49:53.474Z,99.99
2018-06-20T01:50:53.470Z,99.99
2018-06-20T01:51:53.482Z,99.99
2018-06-20T01:52:53.474Z,99.99
2018-06-20T01:53:53.479Z,99.99
2018-06-20T01:54:53.478Z,99.99
2018-06-20T01:55:53.479Z,99.99
2018-06-20T01:56:53.478Z,99.99
2018-06-20T01:57:53.479Z,99.99
2018-06-20T01:58:53.481Z,99.99
2018-06-20T01:59:53.510Z,99.99
2018-06-20T02:00:53.484Z,99.99
2018-06-20T02:01:53.486Z,99.99
2018-06-20T02:02:53.491Z,99.99
2018-06-20T02:03:53.512Z,99.99
2018-06-20T02:04:53.492Z,99.99
2018-06-20T02:05:53.495Z,99.99
2018-06-20T02:06:53.494Z,99.99
2018-06-20T02:07:53.520Z,99.99
2018-06-20T02:08:53.500Z,99.99
2018-06-20T02:09:53.497Z,99.99
2018-06-20T02:10:53.497Z,99.99
2018-06-20T02:11:53.500Z,99.99
2018-06-20T02:12:53.500Z,99.99
2018-06-20T02:13:53.526Z,99.99
2018-06-20T02:14:53.500Z,99.99
2018-06-20T02:15:53.504Z,99.99
2018-06-20T02:16:53.503Z,99.99
2018-06-20T02:17:53.507Z,99.99
2018-06-20T02:18:53.510Z,99.99
2018-06-20T02:19:53.505Z,99.99
2018-06-20T02:20:53.511Z,99.99
2018-06-20T02:21:53.511Z,99.99
2018-06-20T02:22:53.515Z,99.99
2018-06-20T02:23:53.514Z,99.99
2018-06-20T02:24:53.514Z,99.99
2018-06-20T02:25:53.513Z,99.99
2018-06-20T02:26:53.513Z,99.99
2018-06-20T02:27:53.535Z,99.99
2018-06-20T02:28:53.517Z,99.99
2018-06-20T02:29:53.523Z,99.99
2018-06-20T02:30:53.548Z,99.99
2018-06-20T02:31:53.521Z,99.99
2018-06-20T02:32:53.520Z,99.99
2018-06-20T02:33:53.567Z,99.99
2018-06-20T02:34:53.527Z,99.99
2018-06-20T02:35:53.543Z,99.99
2018-06-20T02:36:53.528Z,99.99
2018-06-20T02:37:53.529Z,99.99
2018-06-20T02:38:53.551Z,99.99
2018-06-20T02:39:53.526Z,99.99
2018-06-20T02:40:53.528Z,99.99
2018-06-20T02:41:53.532Z,99.99
2018-06-20T02:42:53.549Z,99.99
2018-06-20T02:43:53.538Z,99.99
2018-06-20T02:44:53.534Z,99.99
2018-06-20T02:45:53.545Z,99.99
2018-06-20T02:46:53.538Z,99.99
2018-06-20T02:47:53.540Z,99.99
2018-06-20T02:48:53.537Z,99.99
2018-06-20T02:49:53.537Z,99.99
2018-06-20T02:50:53.550Z,99.99
2018-06-20T02:51:53.568Z,99.99
2018-06-20T02:52:53.544Z,99.99
2018-06-20T02:53:53.543Z,99.99
2018-06-20T02:54:53.540Z,99.99
2018-06-20T02:55:53.568Z,99.99
2018-06-20T02:56:53.546Z,99.99
2018-06-20T02:57:53.546Z,99.99
2018-06-20T02:58:53.549Z,99.99
2018-06-20T02:59:53.549Z,99.99
2018-06-20T03:00:53.552Z,99.99
2018-06-20T03:01:53.553Z,99.99
2018-06-20T03:02:53.551Z,99.99
2018-06-20T03:03:53.558Z,99.99
2018-06-20T03:04:53.583Z,99.99
2018-06-20T03:05:53.558Z,99.99
2018-06-20T03:06:53.556Z,99.99
2018-06-20T03:07:53.559Z,99.99
2018-06-20T03:08:53.596Z,99.99
2018-06-20T03:09:53.572Z,99.99
2018-06-20T03:10:53.566Z,99.99
2018-06-20T03:11:53.572Z,99.99
2018-06-20T03:12:53.590Z,99.99
2018-06-20T03:13:53.565Z,99.99
2018-06-20T03:14:53.571Z,99.99
2018-06-20T03:15:53.572Z,99.99
2018-06-20T03:16:53.570Z,99.99
2018-06-20T03:17:53.575Z,99.99
2018-06-20T03:18:53.576Z,99.99
2018-06-20T03:19:53.573Z,99.99
2018-06-20T03:20:53.632Z,99.99
2018-06-20T03:21:53.580Z,99.99
2018-06-20T03:22:53.614Z,99.99
2018-06-20T03:23:53.580Z,99.99
2018-06-20T03:24:53.580Z,99.99
2018-06-20T03:25:53.604Z,99.99
2018-06-20T03:26:53.608Z,99.99
2018-06-20T03:27:53.584Z,99.99
2018-06-20T03:28:53.586Z,99.99
2018-06-20T03:29:53.661Z,99.99
2018-06-20T03:30:53.588Z,99.99
2018-06-20T03:31:53.606Z,99.99
2018-06-20T03:32:53.612Z,99.99
2018-06-20T03:33:53.589Z,99.99
2018-06-20T03:34:53.593Z,99.99
2018-06-20T03:35:53.598Z,99.99
2018-06-20T03:36:53.629Z,99.99
2018-06-20T03:37:53.596Z,99.99
2018-06-20T03:38:53.598Z,99.99
2018-06-20T03:39:53.630Z,99.99
2018-06-20T03:40:53.605Z,99.99
2018-06-20T03:41:53.604Z,99.99
2018-06-20T03:42:53.601Z,99.99
2018-06-20T03:43:53.605Z,99.99
2018-06-20T03:44:53.604Z,99.99
2018-06-20T03:45:53.605Z,99.99
2018-06-20T03:46:53.609Z,99.99
2018-06-20T03:47:53.612Z,99.99
2018-06-20T03:48:53.612Z,99.99
2018-06-20T03:49:53.613Z,99.99
2018-06-20T03:50:53.611Z,99.99
2018-06-20T03:51:53.615Z,99.99
2018-06-20T03:52:53.618Z,99.99
2018-06-20T03:53:53.620Z,99.99
2018-06-20T03:54:53.621Z,99.99
2018-06-20T03:55:53.646Z,99.99
2018-06-20T03:56:53.625Z,99.99
2018-06-20T03:57:53.623Z,99.99
2018-06-20T03:58:53.624Z,99.99
2018-06-20T03:59:53.623Z,99.99
2018-06-20T04:00:53.629Z,99.99
2018-06-20T04:01:53.631Z,99.99
2018-06-20T04:02:53.660Z,99.99
2018-06-20T04:03:53.632Z,99.99
2018-06-20T04:04:53.636Z,99.99
2018-06-20T04:05:53.636Z,99.99
2018-06-20T04:06:53.646Z,99.99
2018-06-20T04:07:53.649Z,99.99
2018-06-20T04:08:53.643Z,99.99
2018-06-20T04:09:53.642Z,99.99
2018-06-20T04:10:53.645Z,99.99
2018-06-20T04:11:53.648Z,99.99
2018-06-20T04:12:53.652Z,99.99
2018-06-20T04:13:53.664Z,99.99
2018-06-20T04:14:53.660Z,99.99
2018-06-20T04:15:53.657Z,99.99
2018-06-20T04:16:53.660Z,99.99
2018-06-20T04:17:53.657Z,99.99
2018-06-20T04:18:53.666Z,99.99
2018-06-20T04:19:53.666Z,99.99
2018-06-20T04:20:53.668Z,99.99
2018-06-20T04:21:53.665Z,99.99
2018-06-20T04:22:53.705Z,99.99
2018-06-20T04:23:54.589Z,99.99
2018-06-20T04:24:53.673Z,99.99
2018-06-20T04:25:53.674Z,99.99
2018-06-20T04:26:53.676Z,99.99
2018-06-20T04:27:53.681Z,99.99
2018-06-20T04:28:53.680Z,99.99
2018-06-20T04:29:53.713Z,99.99
2018-06-20T04:30:53.685Z,99.99
2018-06-20T04:31:53.687Z,99.99
2018-06-20T04:32:53.693Z,99.99
2018-06-20T04:33:53.723Z,99.99
2018-06-20T04:34:53.860Z,99.99
2018-06-20T04:35:53.732Z,99.99
2018-06-20T04:36:53.696Z,99.99
2018-06-20T04:37:53.701Z,99.99
2018-06-20T04:38:53.704Z,99.99
2018-06-20T04:39:53.703Z,99.99
2018-06-20T04:40:53.704Z,99.99
2018-06-20T04:41:53.708Z,99.99
2018-06-20T04:42:53.728Z,99.99
2018-06-20T04:43:53.717Z,99.99
2018-06-20T04:44:53.745Z,99.99
2018-06-20T04:45:53.718Z,99.99
2018-06-20T04:46:53.724Z,99.99
2018-06-20T04:47:53.727Z,99.99
2018-06-20T04:48:53.727Z,99.99
2018-06-20T04:49:53.738Z,99.99
2018-06-20T04:50:53.752Z,99.99
2018-06-20T04:51:53.733Z,99.99
2018-06-20T04:52:53.736Z,99.99
2018-06-20T04:53:53.740Z,99.99
2018-06-20T04:54:53.746Z,99.99
2018-06-20T04:55:53.749Z,99.99
2018-06-20T04:56:53.745Z,99.99
2018-06-20T04:57:53.749Z,99.99
2018-06-20T04:58:53.756Z,99.99
2018-06-20T04:59:53.754Z,99.99
2018-06-20T05:00:53.759Z,99.99
2018-06-20T05:01:53.758Z,99.99
2018-06-20T05:02:53.767Z,99.99
2018-06-20T05:03:53.765Z,99.99
2018-06-20T05:04:53.771Z,99.99
2018-06-20T05:05:53.769Z,99.99
2018-06-20T05:06:53.773Z,99.99
2018-06-20T05:07:53.777Z,99.99
2018-06-20T05:08:53.779Z,99.99
2018-06-20T05:09:53.790Z,99.99
2018-06-20T05:10:53.784Z,99.99
2018-06-20T05:11:53.784Z,99.99
2018-06-20T05:12:53.789Z,99.99
2018-06-20T05:13:53.797Z,99.99
2018-06-20T05:14:53.798Z,99.99
2018-06-20T05:15:53.798Z,99.99
2018-06-20T05:16:53.799Z,99.99
2018-06-20T05:17:53.809Z,99.99
2018-06-20T05:18:53.834Z,99.99
2018-06-20T05:19:53.808Z,99.99
2018-06-20T05:20:53.813Z,99.99
2018-06-20T05:21:53.816Z,99.99
2018-06-20T05:22:53.819Z,99.99
2018-06-20T05:23:53.843Z,99.99
2018-06-20T05:24:53.825Z,99.99
2018-06-20T05:25:53.829Z,99.99
2018-06-20T05:26:53.836Z,99.99
2018-06-20T05:27:53.839Z,99.99
2018-06-20T05:28:53.840Z,99.99
2018-06-20T05:29:53.872Z,99.99
2018-06-20T05:30:54.008Z,99.99
2018-06-20T05:31:53.852Z,99.99
2018-06-20T05:32:53.863Z,99.99
2018-06-20T05:33:53.861Z,99.99
2018-06-20T05:34:53.860Z,99.99
2018-06-20T05:35:53.861Z,99.99
2018-06-20T05:36:53.871Z,99.99
2018-06-20T05:37:54.601Z,99.99
2018-06-20T05:38:53.874Z,99.99
2018-06-20T05:39:53.878Z,99.99
2018-06-20T05:40:53.882Z,99.99
2018-06-20T05:41:53.909Z,99.99
2018-06-20T05:42:53.891Z,99.99
2018-06-20T05:43:53.891Z,99.99
2018-06-20T05:44:53.927Z,99.99
2018-06-20T05:45:53.902Z,99.99
2018-06-20T05:46:53.910Z,99.99
2018-06-20T05:47:53.959Z,99.99
2018-06-20T05:48:53.937Z,99.99
2018-06-20T05:49:53.921Z,99.99
2018-06-20T05:50:53.922Z,99.99
2018-06-20T05:51:53.926Z,99.99
2018-06-20T05:52:53.934Z,99.99
2018-06-20T05:53:53.945Z,99.99
2018-06-20T05:54:53.937Z,99.99
2018-06-20T05:55:53.954Z,99.99
2018-06-20T05:56:53.945Z,99.99
2018-06-20T05:57:53.999Z,99.99
2018-06-20T05:58:54.017Z,99.99
2018-06-20T05:59:53.958Z,99.99
2018-06-20T06:00:53.971Z,99.99
2018-06-20T06:01:53.983Z,99.99
2018-06-20T06:02:53.974Z,99.99
2018-06-20T06:03:53.978Z,99.99
2018-06-20T06:04:53.981Z,99.99
2018-06-20T06:05:53.985Z,99.99
2018-06-20T06:06:53.991Z,99.99
2018-06-20T06:07:54.020Z,99.99
2018-06-20T06:08:54.001Z,99.99
2018-06-20T06:09:54.179Z,99.99
2018-06-20T06:10:54.009Z,99.99
2018-06-20T06:11:54.080Z,99.99
2018-06-20T06:12:54.029Z,99.99
2018-06-20T06:13:54.027Z,99.99
2018-06-20T06:14:54.054Z,99.99
2018-06-20T06:15:54.033Z,99.99
2018-06-20T06:16:54.109Z,99.99
2018-06-20T06:17:54.044Z,99.55
2018-06-20T06:18:54.081Z,98.58
2018-06-20T06:19:54.069Z,98.82
2018-06-20T06:20:54.060Z,97.57
2018-06-20T06:21:54.066Z,96.80
2018-06-20T06:22:54.124Z,98.44
2018-06-20T06:23:54.073Z,98.92
2018-06-20T06:24:54.109Z,98.15
2018-06-20T06:25:54.084Z,97.57
2018-06-20T06:26:54.120Z,97.72
2018-06-20T06:27:54.095Z,94.96
2018-06-20T06:28:54.111Z,90.57
2018-06-20T06:29:54.109Z,87.19
2018-06-20T06:30:54.111Z,85.53
2018-06-20T06:31:54.115Z,82.81
2018-06-20T06:32:54.139Z,80.77
2018-06-20T06:33:54.143Z,78.38
2018-06-20T06:34:54.132Z,76.74
2018-06-20T06:35:54.132Z,76.19
2018-06-20T06:36:54.164Z,74.19
2018-06-20T06:37:54.150Z,72.52
2018-06-20T06:38:54.149Z,70.00
2018-06-20T06:39:54.191Z,69.57
2018-06-20T06:40:54.163Z,69.60
2018-06-20T06:41:54.171Z,68.83
2018-06-20T06:42:54.181Z,69.22
2018-06-20T06:43:54.211Z,68.83
2018-06-20T06:44:54.188Z,69.25
2018-06-20T06:45:54.211Z,67.31
2018-06-20T06:46:54.205Z,67.34
2018-06-20T06:47:54.213Z,67.57
2018-06-20T06:48:54.223Z,65.75
2018-06-20T06:49:54.273Z,65.17
2018-06-20T06:50:54.273Z,65.69
2018-06-20T06:51:54.236Z,66.11
2018-06-20T06:52:54.248Z,66.05
2018-06-20T06:53:54.250Z,65.01
2018-06-20T06:54:54.284Z,64.39
2018-06-20T06:55:54.299Z,64.65
2018-06-20T06:56:54.272Z,64.98
2018-06-20T06:57:54.284Z,64.95
2018-06-20T06:58:54.288Z,65.27
2018-06-20T06:59:54.304Z,65.79
2018-06-20T07:00:54.308Z,67.18
2018-06-20T07:01:54.314Z,67.70
2018-06-20T07:02:54.340Z,66.37
2018-06-20T07:03:54.336Z,65.98
2018-06-20T07:04:54.360Z,66.76
2018-06-20T07:05:54.347Z,67.67
2018-06-20T07:06:54.363Z,65.75
2018-06-20T07:07:54.359Z,65.08
2018-06-20T07:08:54.366Z,64.32
2018-06-20T07:09:54.379Z,63.13
2018-06-20T07:10:54.395Z,63.65
2018-06-20T07:11:54.396Z,62.93
2018-06-20T07:12:54.407Z,61.63
2018-06-20T07:13:54.417Z,62.60
2018-06-20T07:14:54.425Z,62.12
2018-06-20T07:15:54.439Z,62.58
2018-06-20T07:16:54.441Z,66.24
2018-06-20T07:17:54.452Z,66.08
2018-06-20T07:18:54.461Z,66.34
2018-06-20T07:19:54.471Z,67.02
2018-06-20T07:20:54.478Z,66.31
2018-06-20T07:21:54.487Z,65.01
2018-06-20T07:22:54.498Z,66.08
2018-06-20T07:23:54.507Z,65.63
2018-06-20T07:24:54.514Z,65.27
2018-06-20T07:25:54.523Z,64.65
2018-06-20T07:26:54.533Z,64.81
2018-06-20T07:27:54.544Z,64.36
2018-06-20T07:28:54.559Z,65.72
2018-06-20T07:29:54.630Z,67.18
2018-06-20T07:30:54.575Z,67.24
2018-06-20T07:31:54.586Z,69.15
2018-06-20T07:32:54.590Z,70.76
2018-06-20T07:33:54.637Z,71.25
2018-06-20T07:34:54.609Z,70.57
2018-06-20T07:35:54.716Z,70.25
2018-06-20T07:36:54.630Z,69.85
2018-06-20T07:37:54.644Z,70.60
2018-06-20T07:38:54.653Z,70.92
2018-06-20T07:39:54.660Z,72.09
2018-06-20T07:40:54.668Z,72.09
2018-06-20T07:41:54.675Z,72.18
2018-06-20T07:42:54.684Z,72.71
2018-06-20T07:43:54.706Z,71.64
2018-06-20T07:44:54.705Z,71.09
2018-06-20T07:45:54.711Z,69.64
2018-06-20T07:46:54.755Z,69.18
2018-06-20T07:47:54.812Z,69.45
2018-06-20T07:48:54.743Z,67.15
2018-06-20T07:49:54.751Z,65.72
2018-06-20T07:50:54.754Z,65.43
2018-06-20T07:51:54.783Z,64.23
2018-06-20T07:52:54.773Z,63.49
2018-06-20T07:53:54.782Z,63.00
2018-06-20T07:54:54.788Z,62.54
2018-06-20T07:55:54.813Z,63.00
2018-06-20T07:56:54.816Z,62.32
2018-06-20T07:57:54.824Z,62.45
2018-06-20T07:58:54.832Z,63.01
2018-06-20T07:59:54.838Z,63.82
2018-06-20T08:00:54.998Z,65.37
2018-06-20T08:01:54.864Z,65.95
2018-06-20T08:02:54.873Z,66.44
2018-06-20T08:03:54.879Z,66.99
2018-06-20T08:04:54.918Z,67.05
2018-06-20T08:05:54.901Z,66.85
2018-06-20T08:06:54.910Z,67.34
2018-06-20T08:07:54.924Z,68.60
2018-06-20T08:08:54.933Z,69.08
2018-06-20T08:09:54.941Z,68.47
2018-06-20T08:10:54.953Z,68.40
2018-06-20T08:11:54.963Z,68.99
2018-06-20T08:12:54.968Z,68.34
2018-06-20T08:13:54.978Z,67.40
2018-06-20T08:14:55.055Z,66.08
2018-06-20T08:15:54.994Z,64.92
2018-06-20T08:16:55.007Z,63.75
2018-06-20T08:17:55.013Z,61.91
2018-06-20T08:18:55.079Z,62.81
2018-06-20T08:19:55.033Z,61.35
2018-06-20T08:20:55.050Z,61.45
2018-06-20T08:21:55.053Z,61.35
2018-06-20T08:22:55.065Z,61.61
2018-06-20T08:23:55.071Z,61.58
2018-06-20T08:24:55.084Z,63.20
2018-06-20T08:25:55.098Z,63.88
2018-06-20T08:26:55.105Z,64.30
2018-06-20T08:27:55.117Z,64.01
2018-06-20T08:28:55.122Z,63.53
2018-06-20T08:29:55.136Z,63.82
2018-06-20T08:30:55.158Z,64.95
2018-06-20T08:31:55.156Z,63.98
2018-06-20T08:32:55.184Z,63.98
2018-06-20T08:33:55.176Z,63.78
2018-06-20T08:34:55.185Z,65.50
2018-06-20T08:35:55.239Z,64.79
2018-06-20T08:36:55.206Z,65.30
2018-06-20T08:37:55.217Z,65.95
2018-06-20T08:38:55.223Z,66.53
2018-06-20T08:39:55.234Z,66.43
2018-06-20T08:40:55.243Z,65.98
2018-06-20T08:41:55.253Z,65.85
2018-06-20T08:42:55.324Z,65.01
2018-06-20T08:43:55.275Z,64.37
2018-06-20T08:44:55.282Z,63.69
2018-06-20T08:45:55.296Z,64.72
2018-06-20T08:46:55.298Z,64.34
2018-06-20T08:47:55.308Z,64.30
2018-06-20T08:48:55.319Z,65.17
2018-06-20T08:49:55.330Z,65.66
2018-06-20T08:50:55.340Z,65.72
2018-06-20T08:51:55.345Z,66.60
2018-06-20T08:52:55.392Z,65.92
2018-06-20T08:53:55.392Z,66.98
2018-06-20T08:54:55.397Z,66.05
2018-06-20T08:55:55.396Z,65.66
2018-06-20T08:56:55.388Z,64.82
2018-06-20T08:57:55.399Z,63.62
2018-06-20T08:58:55.406Z,65.40
2018-06-20T08:59:55.412Z,63.88
2018-06-20T09:00:55.423Z,63.91
2018-06-20T09:01:55.461Z,62.87
2018-06-20T09:02:55.441Z,61.02
2018-06-20T09:03:55.448Z,61.35
2018-06-20T09:04:55.463Z,61.38
2018-06-20T09:05:55.494Z,60.63
2018-06-20T09:06:55.478Z,59.07
2018-06-20T09:07:55.487Z,58.87
2018-06-20T09:08:55.514Z,59.63
2018-06-20T09:09:55.504Z,59.92
2018-06-20T09:10:55.545Z,60.67
2018-06-20T09:11:55.524Z,62.26
2018-06-20T09:12:55.649Z,63.10
2018-06-20T09:13:55.543Z,63.82
2018-06-20T09:14:55.554Z,63.98
2018-06-20T09:15:55.556Z,65.14
2018-06-20T09:16:55.570Z,65.11
2018-06-20T09:17:55.577Z,66.05
2018-06-20T09:18:55.587Z,67.21
2018-06-20T09:19:55.593Z,67.98
2018-06-20T09:20:55.601Z,67.11
2018-06-20T09:21:55.640Z,67.24
2018-06-20T09:22:55.614Z,66.75
2018-06-20T09:23:55.624Z,66.30
2018-06-20T09:24:55.650Z,64.62
2018-06-20T09:25:55.681Z,61.74
2018-06-20T09:26:55.652Z,61.48
2018-06-20T09:27:55.658Z,60.54
2018-06-20T09:28:55.683Z,60.35
2018-06-20T09:29:55.724Z,60.80
2018-06-20T09:30:55.687Z,61.48
2018-06-20T09:31:55.691Z,60.77
2018-06-20T09:32:55.700Z,61.19
2018-06-20T09:33:55.721Z,61.74
2018-06-20T09:34:55.719Z,62.42
2018-06-20T09:35:55.725Z,62.68
2018-06-20T09:36:55.742Z,62.95
2018-06-20T09:37:55.746Z,63.69
2018-06-20T09:38:55.778Z,64.95
2018-06-20T09:39:55.758Z,64.47
2018-06-20T09:40:55.764Z,64.50
2018-06-20T09:41:55.793Z,62.78
2018-06-20T09:42:55.780Z,62.07
2018-06-20T09:43:55.904Z,61.68
2018-06-20T09:44:55.796Z,61.48
2018-06-20T09:45:55.805Z,60.51
2018-06-20T09:46:55.809Z,59.67
2018-06-20T09:47:55.821Z,57.53
2018-06-20T09:48:55.832Z,58.23
2018-06-20T09:49:55.837Z,57.78
2018-06-20T09:50:55.844Z,56.03
2018-06-20T09:51:55.850Z,56.74
2018-06-20T09:52:55.861Z,57.32
2018-06-20T09:53:55.867Z,57.15
2018-06-20T09:54:55.877Z,56.37
2018-06-20T09:55:55.882Z,56.67
2018-06-20T09:56:55.888Z,56.30
2018-06-20T09:57:55.942Z,54.55
2018-06-20T09:58:55.910Z,51.92
2018-06-20T09:59:55.914Z,52.40
2018-06-20T10:00:55.926Z,51.53
2018-06-20T10:01:55.933Z,51.75
2018-06-20T10:02:55.942Z,51.82
2018-06-20T10:03:55.951Z,52.99
2018-06-20T10:04:55.959Z,53.81
2018-06-20T10:05:55.968Z,55.35
2018-06-20T10:06:55.980Z,55.90
2018-06-20T10:07:55.996Z,56.65
2018-06-20T10:08:55.994Z,57.33
2018-06-20T10:09:56.004Z,58.37
2018-06-20T10:10:56.012Z,58.15
2018-06-20T10:11:56.022Z,58.25
2018-06-20T10:12:56.027Z,59.34
2018-06-20T10:13:56.049Z,59.03
2018-06-20T10:14:56.050Z,58.18
2018-06-20T10:15:56.049Z,58.31
2018-06-20T10:16:56.069Z,57.46
2018-06-20T10:17:56.072Z,56.10
2018-06-20T10:18:56.077Z,55.35
2018-06-20T10:19:56.089Z,54.01
2018-06-20T10:20:56.099Z,52.55
2018-06-20T10:21:56.105Z,53.81
2018-06-20T10:22:56.111Z,54.21
2018-06-20T10:23:56.121Z,53.59
2018-06-20T10:24:56.145Z,54.15
2018-06-20T10:25:56.149Z,53.99
2018-06-20T10:26:56.170Z,54.74
2018-06-20T10:27:56.152Z,55.54
2018-06-20T10:28:56.163Z,55.51
2018-06-20T10:29:56.171Z,55.61
2018-06-20T10:30:56.181Z,56.16
2018-06-20T10:31:56.187Z,57.14
2018-06-20T10:32:56.195Z,56.75
2018-06-20T10:33:56.205Z,56.59
2018-06-20T10:34:56.212Z,56.26
2018-06-20T10:35:56.223Z,56.77
2018-06-20T10:36:56.230Z,56.64
2018-06-20T10:37:56.238Z,55.27
2018-06-20T10:38:56.248Z,56.12
2018-06-20T10:39:56.276Z,55.83
2018-06-20T10:40:56.264Z,56.51
2018-06-20T10:41:56.274Z,56.41
2018-06-20T10:42:56.277Z,55.32
2018-06-20T10:43:56.289Z,55.74
2018-06-20T10:44:56.296Z,56.61
2018-06-20T10:45:56.317Z,56.41
2018-06-20T10:46:56.323Z,56.97
2018-06-20T10:47:56.322Z,57.39
2018-06-20T10:48:56.330Z,55.80
2018-06-20T10:49:56.338Z,55.41
2018-06-20T10:50:56.347Z,54.86
2018-06-20T10:51:56.355Z,54.40
2018-06-20T10:52:56.365Z,53.81
2018-06-20T10:53:56.376Z,55.21
2018-06-20T10:54:56.388Z,54.23
2018-06-20T10:55:56.388Z,53.87
2018-06-20T10:56:56.397Z,52.80
2018-06-20T10:57:56.415Z,52.73
2018-06-20T10:58:56.410Z,53.05
2018-06-20T10:59:56.421Z,52.78
2018-06-20T11:00:56.437Z,52.00
2018-06-20T11:01:56.443Z,51.80
2018-06-20T11:02:56.455Z,52.00
2018-06-20T11:03:56.460Z,53.07
2018-06-20T11:04:56.467Z,53.73
2018-06-20T11:05:56.476Z,52.83
2018-06-20T11:06:56.513Z,52.99
2018-06-20T11:07:56.495Z,53.85
2018-06-20T11:08:56.507Z,54.43
2018-06-20T11:09:56.518Z,54.23
2018-06-20T11:10:56.519Z,54.43
2018-06-20T11:11:56.528Z,54.62
2018-06-20T11:12:56.542Z,54.30
2018-06-20T11:13:56.623Z,54.72
2018-06-20T11:14:56.560Z,55.40
2018-06-20T11:15:56.562Z,55.33
2018-06-20T11:16:56.574Z,53.11
2018-06-20T11:17:56.583Z,52.66
2018-06-20T11:18:56.585Z,52.56
2018-06-20T11:19:56.609Z,51.78
2018-06-20T11:20:56.605Z,50.70
2018-06-20T11:21:56.649Z,50.70
2018-06-20T11:22:56.643Z,50.04
2018-06-20T11:23:56.648Z,49.85
2018-06-20T11:24:56.646Z,49.54
2018-06-20T11:25:56.651Z,49.83
2018-06-20T11:26:56.671Z,51.09
2018-06-20T11:27:56.670Z,49.73
2018-06-20T11:28:56.677Z,50.29
2018-06-20T11:29:56.689Z,51.36
2018-06-20T11:30:56.698Z,52.12
2018-06-20T11:31:56.708Z,51.92
2018-06-20T11:32:56.717Z,53.50
2018-06-20T11:33:56.723Z,55.65
2018-06-20T11:34:56.730Z,54.38
2018-06-20T11:35:56.745Z,54.77
2018-06-20T11:36:56.750Z,55.07
2018-06-20T11:37:56.761Z,54.68
2018-06-20T11:38:56.768Z,55.07
2018-06-20T11:39:56.778Z,54.68
2018-06-20T11:40:56.787Z,54.09
2018-06-20T11:41:56.797Z,54.68
2018-06-20T11:42:56.812Z,53.77
2018-06-20T11:43:56.814Z,52.89
2018-06-20T11:44:56.829Z,53.97
2018-06-20T11:45:56.832Z,53.87
2018-06-20T11:46:56.840Z,53.89
2018-06-20T11:47:56.848Z,53.09
2018-06-20T11:48:56.860Z,53.58
2018-06-20T11:49:56.948Z,54.09
2018-06-20T11:50:56.875Z,53.48
2018-06-20T11:51:56.884Z,53.97
2018-06-20T11:52:56.893Z,54.16
2018-06-20T11:53:56.922Z,55.40
2018-06-20T11:54:56.917Z,56.09
2018-06-20T11:55:56.919Z,55.37
2018-06-20T11:56:56.930Z,56.15
2018-06-20T11:57:56.938Z,55.99
2018-06-20T11:58:56.948Z,56.11
2018-06-20T11:59:56.959Z,55.62
2018-06-20T12:00:56.966Z,55.43
2018-06-20T12:01:56.993Z,54.65
2018-06-20T12:02:56.996Z,54.46
2018-06-20T12:03:57.040Z,54.48
2018-06-20T12:04:57.000Z,55.46
2018-06-20T12:05:57.010Z,54.58
2018-06-20T12:06:57.017Z,54.21
2018-06-20T12:07:57.026Z,54.31
2018-06-20T12:08:57.037Z,54.34
2018-06-20T12:09:57.078Z,53.66
2018-06-20T12:10:57.060Z,52.68
2018-06-20T12:11:57.069Z,52.29
2018-06-20T12:12:57.069Z,51.51
2018-06-20T12:13:57.085Z,51.31
2018-06-20T12:14:57.109Z,51.61
2018-06-20T12:15:57.096Z,51.63
2018-06-20T12:16:57.223Z,51.82
2018-06-20T12:17:57.113Z,51.86
2018-06-20T12:18:57.120Z,51.53
2018-06-20T12:19:57.129Z,51.07
2018-06-20T12:20:57.140Z,50.39
2018-06-20T12:21:57.527Z,51.56
2018-06-20T12:22:57.160Z,51.76
2018-06-20T12:23:57.171Z,51.59
2018-06-20T12:24:57.181Z,48.63
2018-06-20T12:25:57.185Z,49.32
2018-06-20T12:26:57.191Z,50.42
2018-06-20T12:27:57.201Z,50.32
2018-06-20T12:28:57.229Z,51.22
2018-06-20T12:29:57.337Z,49.32
2018-06-20T12:30:57.233Z,48.44
2018-06-20T12:31:57.245Z,48.54
2018-06-20T12:32:57.257Z,48.34
2018-06-20T12:33:57.264Z,49.22
2018-06-20T12:34:57.267Z,49.61
2018-06-20T12:35:57.277Z,49.80
2018-06-20T12:36:57.286Z,49.04
2018-06-20T12:37:57.386Z,48.55
2018-06-20T12:38:57.305Z,49.43
2018-06-20T12:39:57.315Z,50.02
2018-06-20T12:40:57.377Z,48.05
2018-06-20T12:41:57.336Z,48.34
2018-06-20T12:42:57.343Z,50.20
2018-06-20T12:43:57.360Z,50.39
2018-06-20T12:44:57.372Z,51.07
2018-06-20T12:45:57.398Z,50.61
2018-06-20T12:46:57.435Z,49.53
2018-06-20T12:47:57.389Z,49.73
2018-06-20T12:48:57.531Z,48.48
2018-06-20T12:49:57.410Z,48.77
2018-06-20T12:50:57.429Z,48.68
2018-06-20T12:51:57.429Z,47.31
2018-06-20T12:52:57.437Z,47.97